Time;durP1;ratioP1;P1;durP2;ratioP2;P2;SDS_P1;SDS_P2;PMS_P1;PMS_P2;Temp;Humidity;BMP_temperature;BMP_pressure;BME280_temperature;BME280_humidity;BME280_pressure;Samples;Min_cycle;Max_cycle;Signal;HPM_P1;HPM_P2
2023/07/14 00:02:49;;;;;;;7.53;4.30;;;18.50;99.90;;;;;;4998973;28;20531;-82
2023/07/14 00:05:33;;;;;;;7.23;3.57;;;18.50;1.00;;;;;;4990620;28;20479;-82
2023/07/14 00:08:03;;;;;;;8.70;3.90;;;18.40;1.00;;;;;;4994371;28;20428;-82
2023/07/14 00:10:44;;;;;;;8.33;3.80;;;18.30;1.00;;;;;;4996538;28;20506;-83
2023/07/14 00:13:14;;;;;;;5.20;4.10;;;18.30;1.00;;;;;;5000978;28;20460;-82
2023/07/14 00:16:11;;;;;;;5.50;3.60;;;18.20;1.00;;;;;;4993116;28;20425;-83
2023/07/14 00:18:42;;;;;;;6.53;3.70;;;18.10;1.00;;;;;;4993880;28;20530;-81
2023/07/14 00:21:34;;;;;;;5.77;3.33;;;18.10;1.00;;;;;;4990496;28;20472;-82
2023/07/14 00:24:19;;;;;;;8.93;3.57;;;18.10;1.00;;;;;;4993467;28;20447;-82
2023/07/14 00:27:03;;;;;;;;;;;;;;;;;;;;;
2023/07/14 00:29:41;;;;;;;5.83;4.03;;;18.10;47.30;;;;;;4997453;28;20833;-83
2023/07/14 00:32:29;;;;;;;6.63;3.93;;;18.10;62.50;;;;;;4993477;28;20551;-82
2023/07/14 00:34:58;;;;;;;4.93;4.00;;;18.10;62.60;;;;;;5007052;28;20531;-81
2023/07/14 00:37:24;;;;;;;7.20;3.83;;;18.20;34.20;;;;;;4992884;28;21001;-82
2023/07/14 00:40:03;;;;;;;5.57;4.10;;;18.20;42.10;;;;;;4997150;28;20800;-82
2023/07/14 00:42:28;;;;;;;5.47;3.33;;;18.20;38.10;;;;;;4999355;28;20505;-83
2023/07/14 00:45:02;;;;;;;10.50;4.10;;;18.20;30.30;;;;;;5003263;28;20955;-81
2023/07/14 00:47:30;;;;;;;12.47;4.50;;;18.20;57.90;;;;;;4993742;28;20183;-82
2023/07/14 00:50:18;;;;;;;4.43;4.00;;;18.20;58.40;;;;;;5001527;28;20520;-83
2023/07/14 00:52:52;;;;;;;7.33;4.60;;;18.30;69.60;;;;;;5010340;28;20461;-83
2023/07/14 00:55:27;;;;;;;6.77;3.80;;;18.30;63.60;;;;;;4999063;28;21052;-82
2023/07/14 00:57:57;;;;;;;5.80;4.10;;;18.30;75.60;;;;;;5002145;28;20457;-83
2023/07/14 01:00:30;;;;;;;11.90;4.70;;;18.30;67.70;;;;;;5007086;28;20432;-83
2023/07/14 01:02:59;;;;;;;5.57;3.70;;;18.30;62.90;;;;;;5003748;28;20452;-82
2023/07/14 01:05:30;;;;;;;4.30;3.33;;;18.30;44.90;;;;;;4998201;28;20432;-82
2023/07/14 01:08:03;;;;;;;5.13;4.13;;;18.30;36.30;;;;;;4998255;28;20968;-81
2023/07/14 01:10:32;;;;;;;6.57;3.70;;;18.20;36.80;;;;;;4996499;28;20430;-82
2023/07/14 01:13:10;;;;;;;4.70;3.90;;;18.20;39.20;;;;;;5012566;28;20459;-82
2023/07/14 01:15:43;;;;;;;6.20;3.50;;;18.20;46.40;;;;;;5002093;28;20484;-81
2023/07/14 01:18:31;;;;;;;9.43;4.10;;;18.10;65.90;;;;;;5004161;28;20446;-82
2023/07/14 01:20:59;;;;;;;7.50;3.83;;;18.10;99.90;;;;;;4995654;28;20558;-81
2023/07/14 01:23:55;;;;;;;5.50;3.20;;;18.00;99.90;;;;;;5001190;28;20808;-82
2023/07/14 01:26:42;;;;;;;4.60;3.23;;;18.00;99.90;;;;;;5002807;28;20440;-82
2023/07/14 01:29:08;;;;;;;9.37;3.60;;;17.90;99.90;;;;;;5002265;28;20451;-82
2023/07/14 01:31:44;;;;;;;5.70;3.27;;;17.80;99.90;;;;;;5007884;28;20972;-82
2023/07/14 01:34:10;;;;;;;4.63;2.93;;;17.80;99.90;;;;;;4999776;28;20459;-82
2023/07/14 01:36:39;;;;;;;4.97;3.50;;;17.80;99.90;;;;;;4995931;28;20441;-81
2023/07/14 01:39:09;;;;;;;6.53;3.67;;;17.70;99.90;;;;;;4993257;28;20976;-82
2023/07/14 01:41:36;;;;;;;5.10;3.10;;;17.70;99.90;;;;;;4999262;28;20480;-82
2023/07/14 01:44:19;;;;;;;5.17;2.87;;;17.70;1.00;;;;;;4997184;28;20457;-82
2023/07/14 01:46:48;;;;;;;5.13;3.37;;;17.60;1.00;;;;;;5000064;28;20440;-83
2023/07/14 01:49:37;;;;;;;7.83;4.00;;;17.60;1.00;;;;;;5007008;28;20426;-83
2023/07/14 01:52:11;;;;;;;8.73;3.57;;;17.60;1.00;;;;;;4993518;28;20831;-82
2023/07/14 01:54:53;;;;;;;4.77;2.60;;;17.60;1.00;;;;;;5004636;28;20443;-83
2023/07/14 01:57:44;;;;;;;5.60;3.47;;;17.60;1.00;;;;;;4995865;28;20441;-82
2023/07/14 02:00:25;;;;;;;4.97;3.07;;;17.60;1.00;;;;;;4988911;28;20439;-81
2023/07/14 02:02:53;;;;;;;7.13;3.57;;;17.50;1.00;;;;;;4999423;28;21027;-82
2023/07/14 02:05:49;;;;;;;5.00;2.93;;;17.50;1.00;;;;;;4997701;28;20453;-83
2023/07/14 02:08:30;;;;;;;4.30;3.03;;;17.50;1.00;;;;;;5001199;28;20539;-82
2023/07/14 02:10:56;;;;;;;8.37;3.40;;;17.50;1.00;;;;;;5008766;28;20524;-81
2023/07/14 02:13:25;;;;;;;8.53;3.10;;;17.50;1.00;;;;;;5000944;28;20944;-82
2023/07/14 02:16:14;;;;;;;5.00;3.20;;;17.50;1.00;;;;;;5005182;28;20459;-82
2023/07/14 02:18:42;;;;;;;4.67;2.90;;;17.50;99.90;;;;;;4998008;28;20997;-82
2023/07/14 02:21:30;;;;;;;8.93;3.10;;;17.50;99.90;;;;;;4996859;28;20474;-81
2023/07/14 02:24:04;;;;;;;4.50;3.17;;;17.40;99.90;;;;;;5000270;28;20489;-82
2023/07/14 02:29:28;;;;;;;4.30;2.80;;;17.40;99.90;;;;;;4989357;28;20422;-83
2023/07/14 02:32:06;;;;;;;3.40;2.80;;;17.40;99.90;;;;;;4991203;28;20466;-83
2023/07/14 02:34:39;;;;;;;3.33;2.60;;;17.40;99.90;;;;;;4996110;28;20470;-83
2023/07/14 02:38:06;;;;;;;6.93;3.33;;;17.40;99.90;;;;;;4996069;28;20439;-81
2023/07/14 02:40:55;;;;;;;7.20;3.40;;;17.30;99.90;;;;;;4973921;28;20446;-83
2023/07/14 02:43:34;;;;;;;5.83;3.33;;;17.30;99.90;;;;;;4997439;28;21034;-83
2023/07/14 02:46:41;;;;;;;5.67;3.03;;;17.30;99.90;;;;;;4995782;28;20454;-83
2023/07/14 02:49:11;;;;;;;5.27;3.50;;;17.30;1.00;;;;;;4996099;28;20439;-82
2023/07/14 02:51:40;;;;;;;5.07;3.27;;;17.20;1.00;;;;;;5003911;28;20467;-83
2023/07/14 02:54:06;;;;;;;4.30;3.10;;;17.20;1.00;;;;;;4996039;28;20446;-83
2023/07/14 02:56:37;;;;;;;3.57;2.83;;;17.20;1.00;;;;;;4997456;28;20445;-83
2023/07/14 02:59:15;;;;;;;6.50;3.00;;;17.20;1.00;;;;;;4998749;28;20442;-83
2023/07/14 03:01:43;;;;;;;5.10;3.10;;;17.20;1.00;;;;;;4997358;28;20501;-82
2023/07/14 03:04:09;;;;;;;6.30;3.20;;;17.10;1.00;;;;;;5003259;28;20470;-83
2023/07/14 03:06:52;;;;;;;;;;;;;;;;;;;;;
2023/07/14 03:09:21;;;;;;;5.67;3.00;;;17.10;1.00;;;;;;4996810;28;20262;-81
2023/07/14 03:11:52;;;;;;;4.83;3.57;;;17.10;1.00;;;;;;4997428;28;20493;-82
2023/07/14 03:14:20;;;;;;;6.83;4.23;;;17.00;1.00;;;;;;4990629;28;20570;-82
2023/07/14 03:16:45;;;;;;;6.50;3.90;;;17.00;1.00;;;;;;5005144;28;20445;-82
2023/07/14 03:19:11;;;;;;;5.10;3.60;;;16.90;1.00;;;;;;4998812;28;20449;-82
2023/07/14 03:22:03;;;;;;;5.70;3.93;;;16.80;1.00;;;;;;4998701;28;20214;-82
2023/07/14 03:24:32;;;;;;;5.33;3.50;;;16.70;17.60;;;;;;5000168;28;20198;-81
2023/07/14 03:26:58;;;;;;;8.67;4.07;;;16.60;92.50;;;;;;4993870;28;20443;-81
2023/07/14 03:29:26;;;;;;;3.73;3.10;;;16.60;99.90;;;;;;4991664;28;20438;-82
2023/07/14 03:31:54;;;;;;;7.77;4.20;;;16.50;99.90;;;;;;4999377;28;20469;-83
2023/07/14 03:34:22;;;;;;;7.77;3.97;;;16.50;99.90;;;;;;4992901;28;20445;-83
2023/07/14 03:36:51;;;;;;;6.40;3.57;;;16.50;99.90;;;;;;4994353;28;21009;-82
2023/07/14 03:39:30;;;;;;;5.03;3.40;;;16.50;1.00;;;;;;4994956;28;20427;-82
2023/07/14 03:42:00;;;;;;;4.90;4.27;;;16.40;1.00;;;;;;4988776;28;20466;-83
2023/07/14 03:44:26;;;;;;;6.13;3.50;;;16.40;1.00;;;;;;4994086;28;20430;-82
2023/07/14 03:47:02;;;;;;;8.40;4.50;;;16.40;1.00;;;;;;5002055;28;20452;-84
2023/07/14 03:49:31;;;;;;;4.77;3.47;;;16.40;1.00;;;;;;4996846;28;20521;-83
2023/07/14 03:52:07;;;;;;;6.70;3.50;;;16.30;1.00;;;;;;4994860;28;20528;-82
2023/07/14 03:54:36;;;;;;;4.97;4.43;;;16.30;93.40;;;;;;5001135;28;20974;-83
2023/07/14 03:57:06;;;;;;;5.37;4.17;;;16.30;94.70;;;;;;4993840;28;20837;-83
2023/07/14 03:59:44;;;;;;;7.03;4.60;;;16.30;99.90;;;;;;4993748;28;20507;-83
2023/07/14 04:02:12;;;;;;;4.00;3.40;;;16.30;99.90;;;;;;4992292;28;20477;-83
2023/07/14 04:04:41;;;;;;;4.00;3.60;;;16.30;99.90;;;;;;5004220;28;20447;-82
2023/07/14 04:07:36;;;;;;;6.03;3.50;;;16.30;99.90;;;;;;5004270;28;20433;-84
2023/07/14 04:10:08;;;;;;;4.93;4.03;;;16.30;99.90;;;;;;4988834;28;20450;-81
2023/07/14 04:12:50;;;;;;;4.70;3.77;;;16.30;99.90;;;;;;4989864;28;20485;-82
2023/07/14 04:15:25;;;;;;;5.33;3.67;;;16.30;99.90;;;;;;5001644;28;20440;-83
2023/07/14 04:17:54;;;;;;;6.50;3.77;;;16.30;99.90;;;;;;4998187;28;20448;-82
2023/07/14 04:20:28;;;;;;;6.37;4.10;;;16.30;99.90;;;;;;5008637;28;20442;-82
2023/07/14 04:22:57;;;;;;;6.50;4.40;;;16.30;99.90;;;;;;5003339;28;20476;-82
2023/07/14 04:25:30;;;;;;;10.70;5.00;;;16.30;99.90;;;;;;4996328;28;20450;-83
2023/07/14 04:30:51;;;;;;;4.87;3.50;;;16.30;99.90;;;;;;4999431;28;20434;-81
2023/07/14 04:33:17;;;;;;;7.27;3.87;;;16.30;99.90;;;;;;5004653;28;20453;-82
2023/07/14 04:35:55;;;;;;;10.83;4.27;;;16.30;77.80;;;;;;5008453;28;20466;-83
2023/07/14 04:38:29;;;;;;;7.97;3.90;;;16.40;59.20;;;;;;5010823;28;20202;-83
2023/07/14 04:41:06;;;;;;;6.30;3.57;;;16.40;80.90;;;;;;5008295;28;20507;-82
2023/07/14 04:43:33;;;;;;;9.17;4.27;;;16.50;4.10;;;;;;5000287;28;20457;-83
2023/07/14 04:46:12;;;;;;;7.37;4.10;;;16.60;1.00;;;;;;4997125;28;20446;-82
2023/07/14 04:48:43;;;;;;;4.67;3.70;;;16.70;1.00;;;;;;4998148;28;20814;-83
2023/07/14 04:51:12;;;;;;;9.83;4.10;;;16.80;1.00;;;;;;5006838;28;20449;-82
2023/07/14 04:53:41;;;;;;;6.40;3.60;;;16.90;99.90;;;;;;5007396;28;20613;-83
2023/07/14 04:56:12;;;;;;;10.37;4.87;;;16.90;99.90;;;;;;5004991;28;20503;-82
2023/07/14 04:58:49;;;;;;;7.70;4.30;;;17.00;99.90;;;;;;4998483;28;20470;-82
2023/07/14 05:01:38;;;;;;;;;;;;;;;;;;;;;
2023/07/14 05:04:11;;;;;;;8.43;4.17;;;17.20;97.40;;;;;;4998481;28;20513;-83
2023/07/14 05:06:37;;;;;;;6.00;3.80;;;17.30;1.70;;;;;;5014516;28;20464;-83
2023/07/14 05:09:37;;;;;;;5.53;3.10;;;17.40;1.00;;;;;;4999401;28;20513;-81
2023/07/14 05:12:05;;;;;;;6.33;3.83;;;17.50;1.00;;;;;;4999943;28;20489;-82
2023/07/14 05:14:34;;;;;;;5.13;3.63;;;17.60;1.00;;;;;;4975666;28;20515;-83
2023/07/14 05:17:03;;;;;;;4.73;3.53;;;17.70;1.00;;;;;;4999522;28;20432;-83
2023/07/14 05:19:32;;;;;;;5.73;3.30;;;17.80;1.00;;;;;;4996884;28;20436;-83
2023/07/14 05:22:29;;;;;;;7.30;3.83;;;18.00;99.90;;;;;;4995550;28;20475;-83
2023/07/14 05:25:29;;;;;;;5.27;3.17;;;18.10;99.90;;;;;;4994471;28;20438;-82
2023/07/14 05:27:57;;;;;;;5.40;3.17;;;18.30;99.90;;;;;;5004842;28;20435;-83
2023/07/14 05:30:33;;;;;;;5.97;3.63;;;18.50;99.90;;;;;;4994685;28;20434;-83
2023/07/14 05:32:59;;;;;;;5.80;3.97;;;18.60;96.70;;;;;;4984970;28;20470;-83
2023/07/14 05:35:41;;;;;;;6.73;3.40;;;18.80;25.00;;;;;;4992009;28;20536;-82
2023/07/14 05:38:16;;;;;;;4.67;2.97;;;19.00;1.00;;;;;;5011073;28;21085;-83
2023/07/14 05:41:09;;;;;;;;;;;;;;;;;;;;;
2023/07/14 05:43:41;;;;;;;10.67;3.40;;;19.30;1.00;;;;;;4998687;28;20548;-83
2023/07/14 05:46:10;;;;;;;4.77;2.90;;;19.60;1.00;;;;;;4997944;28;20446;-82
2023/07/14 05:48:43;;;;;;;4.17;2.47;;;19.70;1.00;;;;;;4998795;28;20947;-83
2023/07/14 05:51:19;;;;;;;;;;;;;;;;;;;;;
2023/07/14 05:54:00;;;;;;;6.47;3.00;;;20.20;99.90;;;;;;4996523;28;20500;-83
2023/07/14 05:56:29;;;;;;;8.40;2.70;;;20.40;99.90;;;;;;5004028;28;20441;-83
2023/07/14 05:59:05;;;;;;;5.80;2.93;;;20.70;99.90;;;;;;5007556;28;20463;-83
2023/07/14 06:01:30;;;;;;;4.90;2.83;;;21.00;99.90;;;;;;4993278;28;20505;-82
2023/07/14 06:03:56;;;;;;;6.33;3.13;;;21.40;99.90;;;;;;5006844;28;20527;-84
2023/07/14 06:06:22;;;;;;;4.00;2.40;;;21.90;99.90;;;;;;5008791;28;20679;-83
2023/07/14 06:08:55;;;;;;;10.53;2.90;;;22.60;99.90;;;;;;4999118;28;20187;-84
2023/07/14 06:11:24;;;;;;;6.37;2.40;;;23.40;99.90;;;;;;5010924;28;20183;-84
2023/07/14 06:13:57;;;;;;;3.27;2.10;;;24.90;99.90;;;;;;5004811;28;20457;-84
2023/07/14 06:16:23;;;;;;;4.77;2.40;;;26.30;99.90;;;;;;5002724;28;20430;-84
2023/07/14 06:18:50;;;;;;;3.10;2.20;;;28.20;99.90;;;;;;5003151;28;20464;-84
2023/07/14 06:21:19;;;;;;;4.43;2.03;;;29.40;99.90;;;;;;5002330;28;20257;-84
2023/07/14 06:23:47;;;;;;;4.50;2.17;;;29.70;99.90;;;;;;5006836;28;20469;-83
2023/07/14 06:26:15;;;;;;;4.73;1.90;;;30.50;99.90;;;;;;5019711;28;20438;-82
2023/07/14 06:28:43;;;;;;;4.27;2.00;;;32.30;99.90;;;;;;5001534;28;20473;-84
2023/07/14 06:40:56;;;;;;;4.07;1.83;;;39.60;73.20;;;;;;4972323;28;20466;-83
2023/07/14 06:43:25;;;;;;;8.13;2.10;;;40.80;56.10;;;;;;5043308;23;20503;-83
2023/07/14 06:46:41;;;;;;;;;;;;;;;;;;;;;
2023/07/14 06:49:43;;;;;;;3.20;1.77;;;42.20;40.00;;;;;;4987982;28;20492;-82
2023/07/14 06:54:40;;;;;;;3.90;1.53;;;44.50;16.20;;;;;;4982037;28;20499;-82
2023/07/14 06:57:09;;;;;;;4.37;1.97;;;43.90;9.90;;;;;;4996242;28;20503;-82
2023/07/14 06:59:34;;;;;;;3.13;2.00;;;45.00;7.10;;;;;;4991288;28;20431;-82
2023/07/14 07:02:01;;;;;;;3.80;1.93;;;46.70;3.80;;;;;;4988847;28;20541;-81
2023/07/14 07:04:27;;;;;;;4.43;2.00;;;47.50;1.00;;;;;;4982524;28;20322;-82
2023/07/14 07:06:53;;;;;;;2.80;1.70;;;47.30;1.00;;;;;;4997267;28;20454;-82
2023/07/14 07:09:19;;;;;;;3.20;1.60;;;47.60;1.00;;;;;;4981741;28;20187;-82
2023/07/14 07:11:45;;;;;;;4.03;1.87;;;47.70;1.00;;;;;;4979902;28;20768;-82
2023/07/14 07:14:10;;;;;;;3.00;1.57;;;47.50;1.00;;;;;;4981273;28;20474;-82
2023/07/14 07:16:36;;;;;;;5.20;1.77;;;47.00;1.00;;;;;;4976449;28;20192;-83
2023/07/14 07:19:02;;;;;;;6.03;1.60;;;46.40;1.00;;;;;;4981603;28;20819;-83
2023/07/14 07:21:28;;;;;;;3.83;1.63;;;46.10;1.00;;;;;;4979624;28;20471;-83
2023/07/14 07:23:53;;;;;;;4.93;1.93;;;45.50;1.00;;;;;;4980393;28;20188;-83
2023/07/14 07:26:19;;;;;;;2.60;1.77;;;45.00;1.00;;;;;;4981044;28;20195;-83
2023/07/14 07:28:44;;;;;;;5.73;2.00;;;45.60;1.00;;;;;;4981478;28;20825;-83
2023/07/14 07:31:11;;;;;;;2.50;1.60;;;46.50;1.00;;;;;;4968573;28;20203;-83
2023/07/14 07:33:41;;;;;;;2.47;1.50;;;47.10;1.00;;;;;;4977097;28;20319;-83
2023/07/14 07:36:16;;;;;;;4.07;1.70;;;46.60;1.00;;;;;;4973272;28;20439;-83
2023/07/14 07:38:49;;;;;;;2.83;1.57;;;46.40;1.00;;;;;;4980276;28;20519;-83
2023/07/14 07:41:17;;;;;;;4.40;1.70;;;44.10;1.00;;;;;;4990737;28;20498;-83
2023/07/14 07:43:44;;;;;;;4.47;2.00;;;42.60;1.00;;;;;;4977622;28;20449;-83
2023/07/14 07:46:10;;;;;;;5.43;2.03;;;39.80;1.00;;;;;;4994480;28;20443;-83
2023/07/14 07:48:36;;;;;;;4.00;2.10;;;39.00;1.00;;;;;;4970099;28;20470;-82
2023/07/14 07:51:04;;;;;;;7.10;1.80;;;38.40;1.00;;;;;;4982511;28;20467;-82
2023/07/14 07:53:29;;;;;;;3.47;1.63;;;38.00;1.00;;;;;;4981868;28;20235;-82
2023/07/14 07:55:58;;;;;;;4.60;1.90;;;37.60;1.00;;;;;;4984150;28;20455;-83
2023/07/14 07:58:24;;;;;;;4.73;2.10;;;37.70;1.00;;;;;;4983346;28;20219;-82
2023/07/14 08:00:54;;;;;;;4.27;2.20;;;37.90;1.00;;;;;;4982278;28;20475;-82
2023/07/14 08:03:20;;;;;;;3.30;2.30;;;37.00;1.00;;;;;;4974688;28;20490;-82
2023/07/14 08:05:46;;;;;;;6.43;2.00;;;36.40;1.00;;;;;;4973994;28;20988;-81
2023/07/14 08:08:12;;;;;;;4.70;2.27;;;36.50;1.00;;;;;;4975898;28;20471;-81
2023/07/14 08:10:43;;;;;;;3.50;1.67;;;36.70;1.00;;;;;;4975468;28;20471;-82
2023/07/14 08:13:09;;;;;;;3.70;1.80;;;37.10;1.00;;;;;;4996310;28;20458;-83
2023/07/14 08:15:37;;;;;;;3.33;1.90;;;37.00;1.00;;;;;;4978851;28;20439;-83
2023/07/14 08:18:03;;;;;;;3.23;1.60;;;37.90;1.00;;;;;;4980414;28;20431;-82
2023/07/14 08:20:29;;;;;;;3.57;2.23;;;40.10;1.00;;;;;;4980055;28;20446;-84
2023/07/14 08:22:54;;;;;;;3.50;1.70;;;41.50;1.00;;;;;;4978203;28;20208;-84
2023/07/14 08:25:21;;;;;;;4.33;1.80;;;42.30;1.00;;;;;;4982664;28;20803;-83
2023/07/14 08:27:47;;;;;;;3.10;1.93;;;41.90;1.00;;;;;;4996478;28;20188;-83
2023/07/14 08:30:12;;;;;;;3.80;2.07;;;42.10;1.00;;;;;;4977796;28;20458;-84
2023/07/14 08:32:38;;;;;;;3.87;1.60;;;44.30;1.00;;;;;;4977746;28;20307;-83
2023/07/14 08:35:04;;;;;;;3.57;1.50;;;45.90;1.00;;;;;;4992438;28;20189;-83
2023/07/14 08:37:29;;;;;;;3.27;1.47;;;46.90;1.00;;;;;;4996704;28;20195;-82
2023/07/14 08:39:55;;;;;;;4.13;1.67;;;47.40;1.00;;;;;;4975103;28;20188;-83
2023/07/14 08:42:23;;;;;;;2.73;1.50;;;46.90;1.00;;;;;;4978267;28;20239;-83
2023/07/14 08:45:14;;;;;;;5.47;2.03;;;46.60;1.00;;;;;;4978212;28;20200;-83
2023/07/14 08:47:49;;;;;;;2.93;1.70;;;46.00;1.00;;;;;;4977305;28;20474;-83
2023/07/14 08:50:22;;;;;;;5.20;1.80;;;45.10;1.00;;;;;;4992626;28;20447;-84
2023/07/14 08:52:49;;;;;;;3.40;2.00;;;45.30;1.00;;;;;;4992170;28;20467;-83
2023/07/14 08:55:19;;;;;;;3.60;1.93;;;45.70;1.00;;;;;;4976836;28;20451;-83
2023/07/14 08:57:59;;;;;;;4.20;1.70;;;46.50;1.00;;;;;;4979283;28;20450;-82
2023/07/14 09:00:33;;;;;;;2.40;1.70;;;47.20;1.00;;;;;;4976860;28;20442;-83
2023/07/14 09:03:13;;;;;;;4.17;2.10;;;45.20;1.00;;;;;;4976981;28;20966;-85
2023/07/14 09:05:49;;;;;;;3.40;2.17;;;45.10;1.00;;;;;;4980612;28;20435;-83
2023/07/14 09:08:15;;;;;;;3.00;1.90;;;44.20;1.00;;;;;;4977851;28;20798;-82
2023/07/14 09:11:00;;;;;;;3.70;1.90;;;43.60;1.00;;;;;;4978566;28;20466;-82
2023/07/14 09:13:46;;;;;;;4.00;2.00;;;44.70;1.00;;;;;;4991514;28;20467;-83
2023/07/14 09:16:15;;;;;;;3.63;2.03;;;45.60;1.00;;;;;;4975865;28;20447;-82
2023/07/14 09:19:17;;;;;;;6.00;1.80;;;45.00;1.00;;;;;;4980492;28;20439;-83
2023/07/14 09:21:52;;;;;;;2.90;1.90;;;42.80;1.00;;;;;;4980909;28;20524;-84
2023/07/14 09:24:31;;;;;;;3.40;2.03;;;40.80;1.00;;;;;;4973037;28;20446;-84
2023/07/14 09:26:56;;;;;;;2.50;1.90;;;40.10;1.00;;;;;;4978032;28;20430;-83
2023/07/14 09:29:44;;;;;;;3.50;2.07;;;38.70;1.00;;;;;;4975286;28;20435;-84
2023/07/14 09:32:35;;;;;;;2.07;1.87;;;37.00;1.00;;;;;;4978603;28;20226;-84
2023/07/14 09:35:18;;;;;;;3.93;1.87;;;36.30;1.00;;;;;;4972827;28;20436;-85
2023/07/14 09:38:05;;;;;;;4.13;2.10;;;37.00;1.00;;;;;;4979243;28;20431;-85
2023/07/14 09:40:33;;;;;;;5.37;2.50;;;36.30;1.00;;;;;;4991798;28;20448;-84
2023/07/14 09:43:01;;;;;;;6.90;2.10;;;35.50;1.00;;;;;;4972755;28;20533;-84
2023/07/14 09:45:32;;;;;;;5.40;2.50;;;35.50;1.00;;;;;;4977379;28;20450;-84
2023/07/14 09:48:17;;;;;;;5.40;2.40;;;34.50;1.00;;;;;;4989888;28;20511;-84
2023/07/14 09:50:54;;;;;;;4.73;2.30;;;33.80;1.00;;;;;;4977560;28;20432;-84
2023/07/14 09:53:20;;;;;;;4.80;2.20;;;33.60;1.00;;;;;;4979154;28;20486;-84
2023/07/14 09:55:56;;;;;;;3.67;1.90;;;33.80;1.00;;;;;;4978255;28;20428;-84
2023/07/14 09:58:24;;;;;;;4.77;2.50;;;34.00;1.00;;;;;;4977188;28;20830;-84
2023/07/14 10:00:51;;;;;;;3.30;2.30;;;34.40;1.00;;;;;;4989541;28;20491;-84
2023/07/14 10:03:18;;;;;;;7.67;2.60;;;34.80;1.00;;;;;;4971574;28;20463;-84
2023/07/14 10:05:47;;;;;;;4.53;2.17;;;35.60;1.00;;;;;;4990451;28;20451;-85
2023/07/14 10:08:34;;;;;;;4.77;2.13;;;36.10;1.00;;;;;;4977389;28;20450;-84
2023/07/14 10:11:26;;;;;;;3.50;1.90;;;36.10;1.00;;;;;;4990998;28;20566;-85
2023/07/14 10:14:00;;;;;;;4.37;2.50;;;35.60;1.00;;;;;;4982713;28;20806;-84
2023/07/14 10:16:28;;;;;;;4.93;2.23;;;35.10;1.00;;;;;;4985854;28;20965;-84
2023/07/14 10:18:56;;;;;;;4.30;2.33;;;36.00;1.00;;;;;;4991564;28;20531;-85
2023/07/14 10:21:28;;;;;;;3.73;1.90;;;38.60;1.00;;;;;;4987003;28;20432;-84
2023/07/14 10:24:04;;;;;;;2.90;2.00;;;37.80;1.00;;;;;;4969328;28;20432;-85
2023/07/14 10:26:35;;;;;;;3.47;1.90;;;37.90;1.00;;;;;;4973487;28;20574;-85
2023/07/14 10:29:06;;;;;;;4.30;2.33;;;40.20;1.00;;;;;;4971509;28;20463;-85
2023/07/14 10:31:33;;;;;;;3.53;2.20;;;41.90;1.00;;;;;;4970753;28;20467;-85
2023/07/14 10:34:18;;;;;;;4.13;2.60;;;41.60;1.00;;;;;;4968035;28;20423;-85
2023/07/14 10:36:44;;;;;;;2.63;2.10;;;41.80;1.00;;;;;;4973840;28;20470;-84
2023/07/14 10:39:16;;;;;;;5.07;2.20;;;40.60;1.00;;;;;;4971499;28;20456;-85
2023/07/14 10:41:45;;;;;;;4.10;2.17;;;39.40;1.00;;;;;;4986453;28;20503;-85
2023/07/14 10:44:25;;;;;;;3.83;2.67;;;39.30;1.00;;;;;;4971522;28;20475;-84
2023/07/14 10:46:54;;;;;;;3.20;2.23;;;38.90;1.00;;;;;;4990439;28;20495;-85
2023/07/14 10:49:29;;;;;;;2.13;1.73;;;40.50;1.00;;;;;;4974195;28;20428;-85
2023/07/14 10:52:40;;;;;;;4.90;2.13;;;41.30;1.00;;;;;;4985890;28;21035;-86
2023/07/14 10:55:17;;;;;;;4.30;1.80;;;42.80;1.00;;;;;;4929936;29;20437;-85
2023/07/14 10:57:54;;;;;;;3.90;2.37;;;44.30;1.00;;;;;;4928907;29;20476;-84
2023/07/14 11:00:32;;;;;;;3.20;2.03;;;45.20;1.00;;;;;;4959989;28;20527;-85
2023/07/14 11:03:20;;;;;;;2.67;1.77;;;45.40;1.00;;;;;;4980335;28;20517;-85
2023/07/14 11:05:55;;;;;;;3.77;2.10;;;45.70;1.00;;;;;;4971553;28;20446;-85
2023/07/14 11:08:24;;;;;;;3.60;1.80;;;46.10;1.00;;;;;;4984590;28;21031;-85
2023/07/14 11:11:08;;;;;;;4.00;1.83;;;45.40;1.00;;;;;;4971091;28;20439;-85
2023/07/14 11:13:49;;;;;;;2.10;1.70;;;45.60;1.00;;;;;;4971551;28;20462;-86
2023/07/14 11:16:55;;;;;;;7.97;1.87;;;44.50;1.00;;;;;;4964344;28;20439;-85
2023/07/14 11:19:52;;;;;;;5.00;2.07;;;44.10;1.00;;;;;;4942318;28;20467;-85
2023/07/14 11:22:47;;;;;;;3.70;1.90;;;43.50;1.00;;;;;;4981807;28;20451;-85
2023/07/14 11:25:32;;;;;;;3.93;1.93;;;44.10;1.00;;;;;;4984251;28;20442;-86
2023/07/14 11:28:20;;;;;;;3.57;2.17;;;44.40;1.00;;;;;;4986616;28;20795;-85
2023/07/14 11:30:49;;;;;;;4.90;2.40;;;43.80;1.00;;;;;;4984406;28;20447;-85
2023/07/14 11:33:39;;;;;;;2.40;2.07;;;43.60;1.00;;;;;;4986441;28;20455;-85
2023/07/14 11:36:13;;;;;;;3.00;2.00;;;42.60;1.00;;;;;;4986926;28;20536;-85
2023/07/14 11:38:48;;;;;;;3.43;2.13;;;41.50;1.00;;;;;;4971138;28;20491;-84
2023/07/14 11:41:16;;;;;;;4.47;2.23;;;40.70;1.00;;;;;;4971340;28;20443;-84
2023/07/14 11:43:43;;;;;;;4.73;3.13;;;39.00;1.00;;;;;;4974093;28;20642;-86
2023/07/14 11:46:14;;;;;;;4.87;2.10;;;37.80;1.00;;;;;;4977822;28;20439;-86
2023/07/14 11:48:59;;;;;;;3.93;2.70;;;37.50;1.00;;;;;;4964050;28;20440;-84
2023/07/14 11:51:48;;;;;;;3.13;2.20;;;37.50;1.00;;;;;;4986120;28;20459;-85
2023/07/14 11:54:16;;;;;;;3.83;2.33;;;38.30;1.00;;;;;;4974798;28;20549;-85
2023/07/14 11:56:45;;;;;;;2.90;2.23;;;39.00;1.00;;;;;;4986869;28;20450;-85
2023/07/14 11:59:22;;;;;;;3.37;2.10;;;39.90;1.00;;;;;;4974380;28;20466;-84
2023/07/14 12:01:53;;;;;;;5.00;2.50;;;40.70;1.00;;;;;;4974003;28;20439;-85
2023/07/14 12:04:24;;;;;;;5.03;2.30;;;40.80;1.00;;;;;;4970213;28;20448;-85
2023/07/14 12:07:03;;;;;;;4.37;2.33;;;40.40;1.00;;;;;;4972798;28;20545;-85
2023/07/14 12:09:28;;;;;;;5.50;2.60;;;40.10;1.00;;;;;;4974575;28;20455;-85
2023/07/14 12:11:58;;;;;;;5.37;2.40;;;40.60;1.00;;;;;;4988874;28;20845;-84
2023/07/14 12:14:36;;;;;;;2.77;2.17;;;39.80;1.00;;;;;;4969038;28;20199;-85
2023/07/14 12:17:25;;;;;;;4.23;2.40;;;39.20;1.00;;;;;;4984447;28;20438;-85
2023/07/14 12:19:53;;;;;;;3.60;2.13;;;38.30;1.00;;;;;;4971790;28;20579;-85
2023/07/14 12:22:53;;;;;;;2.97;2.43;;;38.30;1.00;;;;;;4971510;28;20457;-84
2023/07/14 12:25:21;;;;;;;2.93;2.10;;;38.80;1.00;;;;;;4988362;28;20438;-85
2023/07/14 12:27:48;;;;;;;2.90;2.03;;;38.90;1.00;;;;;;4972169;28;20502;-85
2023/07/14 12:30:30;;;;;;;5.30;2.40;;;39.30;1.00;;;;;;4973422;28;20452;-84
2023/07/14 12:33:03;;;;;;;3.93;2.20;;;39.30;1.00;;;;;;4979696;28;20478;-84
2023/07/14 12:35:30;;;;;;;3.37;2.93;;;38.80;1.00;;;;;;4990204;28;20953;-84
2023/07/14 12:38:11;;;;;;;6.50;2.30;;;38.50;1.00;;;;;;4973142;28;20489;-85
2023/07/14 12:40:38;;;;;;;5.90;2.87;;;38.40;1.00;;;;;;4993382;28;20954;-84
2023/07/14 12:43:06;;;;;;;4.20;2.27;;;39.10;1.00;;;;;;4979428;28;20458;-84
2023/07/14 12:45:33;;;;;;;3.67;2.33;;;40.10;1.00;;;;;;4977275;28;20467;-84
2023/07/14 12:48:01;;;;;;;4.20;2.37;;;40.40;1.00;;;;;;4977418;28;20468;-84
2023/07/14 12:50:27;;;;;;;4.30;2.90;;;40.30;1.00;;;;;;4974275;28;20443;-85
2023/07/14 12:52:53;;;;;;;8.50;2.80;;;39.80;1.00;;;;;;4992631;28;20891;-84
2023/07/14 12:55:21;;;;;;;3.90;3.00;;;39.70;1.00;;;;;;4975174;28;20798;-83
2023/07/14 12:57:48;;;;;;;2.67;2.47;;;39.50;1.00;;;;;;4978049;28;20443;-84
2023/07/14 13:00:34;;;;;;;7.03;3.30;;;39.70;1.00;;;;;;4977631;28;20442;-83
2023/07/14 13:03:02;;;;;;;3.73;2.57;;;40.10;1.00;;;;;;4977527;28;20486;-84
2023/07/14 13:05:38;;;;;;;5.77;2.70;;;39.90;1.00;;;;;;4976837;28;20953;-84
2023/07/14 13:08:07;;;;;;;5.90;3.03;;;40.00;1.00;;;;;;4977272;28;20441;-84
2023/07/14 13:10:42;;;;;;;4.17;2.67;;;39.70;1.00;;;;;;4976890;28;20502;-83
2023/07/14 13:13:14;;;;;;;10.70;3.13;;;38.60;1.00;;;;;;4971922;28;20506;-85
2023/07/14 13:15:40;;;;;;;5.53;3.50;;;38.40;1.00;;;;;;4975226;28;20436;-84
2023/07/14 13:18:32;;;;;;;3.00;2.70;;;37.90;1.00;;;;;;4975568;28;20458;-83
2023/07/14 13:21:00;;;;;;;6.17;3.40;;;37.20;1.00;;;;;;4994314;28;20188;-84
2023/07/14 13:23:28;;;;;;;4.10;3.03;;;36.90;1.00;;;;;;4992986;28;20460;-84
2023/07/14 13:26:16;;;;;;;6.23;2.87;;;35.90;1.00;;;;;;4977800;28;20472;-83
2023/07/14 13:28:58;;;;;;;3.57;2.67;;;35.50;1.00;;;;;;4989522;28;20432;-83
2023/07/14 13:31:40;;;;;;;5.20;2.93;;;35.00;1.00;;;;;;4975466;28;20491;-84
2023/07/14 13:34:24;;;;;;;4.30;2.60;;;34.90;1.00;;;;;;4986407;28;20432;-84
2023/07/14 13:36:52;;;;;;;5.53;2.83;;;35.60;1.00;;;;;;4975193;28;20507;-83
2023/07/14 13:39:28;;;;;;;4.20;2.77;;;36.10;1.00;;;;;;4976095;28;20477;-83
2023/07/14 13:41:57;;;;;;;5.20;3.07;;;36.40;1.00;;;;;;4977384;28;20454;-84
2023/07/14 13:44:37;;;;;;;4.83;2.90;;;36.30;1.00;;;;;;4977398;28;20468;-83
2023/07/14 13:47:40;;;;;;;3.00;2.20;;;36.00;1.00;;;;;;4988659;28;20965;-84
2023/07/14 13:50:05;;;;;;;3.80;2.50;;;35.40;1.00;;;;;;4977224;28;20447;-82
2023/07/14 13:52:33;;;;;;;2.77;2.20;;;35.50;1.00;;;;;;4975828;28;20479;-84
2023/07/14 13:55:10;;;;;;;4.10;2.53;;;35.60;1.00;;;;;;4977230;28;20196;-83
2023/07/14 13:57:36;;;;;;;4.57;2.53;;;35.50;1.00;;;;;;4976571;28;20883;-83